Time;durP1;ratioP1;P1;durP2;ratioP2;P2;SDS_P1;SDS_P2;PMS_P1;PMS_P2;Temp;Humidity;BMP_temperature;BMP_pressure;BME280_temperature;BME280_humidity;BME280_pressure;Samples;Min_cycle;Max_cycle;Signal;HPM_P1;HPM_P2
2022/07/07 00:01:52;;;;;;;10.20;8.30;;;;;;;25.04;48.74;100118.33;116913;1185;22957;-58
2022/07/07 00:04:19;;;;;;;11.30;9.10;;;;;;;25.05;48.82;100119.23;116999;1187;21843;-48
2022/07/07 00:06:46;;;;;;;10.10;8.80;;;;;;;25.08;48.92;100117.08;117019;1184;22751;-58
2022/07/07 00:09:13;;;;;;;10.20;8.60;;;;;;;25.05;49.46;100113.72;116947;1186;21842;-57
2022/07/07 00:11:40;;;;;;;11.50;9.10;;;;;;;25.03;49.16;100118.14;116920;1186;22720;-48
2022/07/07 00:14:08;;;;;;;10.50;9.50;;;;;;;25.02;49.37;100116.48;116996;1187;21856;-58
2022/07/07 00:16:36;;;;;;;11.00;9.40;;;;;;;24.98;49.59;100118.55;116971;1182;23635;-57
2022/07/07 00:19:04;;;;;;;10.70;9.50;;;;;;;24.96;49.56;100119.27;116998;1188;22927;-48
2022/07/07 00:21:31;;;;;;;16.60;10.40;;;;;;;24.93;50.37;100119.98;117093;1186;23644;-58
2022/07/07 00:23:58;;;;;;;11.90;10.80;;;;;;;24.90;51.23;100119.36;117040;1188;22700;-59
2022/07/07 00:26:25;;;;;;;12.60;11.30;;;;;;;24.88;51.14;100116.66;117144;1184;21952;-48
2022/07/07 00:28:52;;;;;;;14.00;11.20;;;;;;;24.87;51.03;100118.71;117270;1182;21850;-48
2022/07/07 00:31:19;;;;;;;17.50;10.70;;;;;;;24.87;50.51;100117.95;117038;1184;22706;-48
2022/07/07 00:33:46;;;;;;;12.60;11.10;;;;;;;24.88;51.07;100117.34;117211;1185;23564;-48
2022/07/07 00:36:13;;;;;;;12.90;11.60;;;;;;;24.85;51.72;100121.15;116983;1186;23552;-58
2022/07/07 00:38:40;;;;;;;12.50;10.80;;;;;;;24.83;51.70;100126.19;117242;1188;21854;-48
2022/07/07 00:41:08;;;;;;;12.30;11.00;;;;;;;24.84;51.36;100126.30;117294;1185;21918;-48
2022/07/07 00:43:40;;;;;;;12.90;10.30;;;;;;;24.82;51.32;100123.56;117239;1185;23545;-58
2022/07/07 00:46:07;;;;;;;13.50;10.40;;;;;;;24.78;51.79;100123.10;117098;1183;24168;-57
2022/07/07 00:48:36;;;;;;;13.00;10.50;;;;;;;24.76;51.74;100123.65;117144;1185;21859;-57
2022/07/07 00:51:04;;;;;;;14.00;10.10;;;;;;;24.72;52.09;100128.62;117090;1183;22087;-57
2022/07/07 00:53:31;;;;;;;14.30;10.40;;;;;;;24.66;52.82;100129.05;117289;1184;23576;-48
2022/07/07 00:55:58;;;;;;;11.50;10.40;;;;;;;24.62;51.91;100130.36;117075;1187;22349;-48
2022/07/07 00:58:24;;;;;;;13.70;10.00;;;;;;;24.61;52.36;100129.41;116971;1184;22622;-57
2022/07/07 01:00:51;;;;;;;13.30;9.90;;;;;;;24.58;52.30;100133.02;117288;1185;21881;-57
2022/07/07 01:03:18;;;;;;;19.50;9.90;;;;;;;24.54;53.09;100137.14;117226;1184;22894;-48
2022/07/07 01:05:47;;;;;;;11.30;9.40;;;;;;;24.46;53.64;100137.88;116892;1187;23094;-47
2022/07/07 01:08:17;;;;;;;14.00;9.00;;;;;;;24.41;52.73;100136.66;117046;1184;21856;-48
2022/07/07 01:10:45;;;;;;;11.00;8.90;;;;;;;24.39;52.33;100140.52;117018;1185;21867;-48
2022/07/07 01:13:12;;;;;;;9.90;8.30;;;;;;;24.41;52.62;100141.09;117056;1186;22810;-57
2022/07/07 01:15:39;;;;;;;11.00;9.50;;;;;;;24.40;52.62;100141.91;117074;1185;23670;-48
2022/07/07 01:18:09;;;;;;;9.20;8.30;;;;;;;24.39;52.21;100143.55;117161;1188;21885;-56
2022/07/07 01:20:36;;;;;;;10.40;8.20;;;;;;;24.40;52.09;100143.30;117221;1186;21883;-49
2022/07/07 01:23:03;;;;;;;10.70;8.50;;;;;;;24.41;52.06;100144.48;117069;1186;22916;-47
2022/07/07 01:25:30;;;;;;;13.90;8.10;;;;;;;24.42;52.38;100142.67;117054;1183;23579;-56
2022/07/07 01:27:57;;;;;;;11.10;8.60;;;;;;;24.41;52.21;100150.08;116997;1188;22908;-48
2022/07/07 01:30:24;;;;;;;11.40;8.60;;;;;;;24.39;52.26;100148.91;116994;1186;23635;-48
2022/07/07 01:32:51;;;;;;;9.60;8.60;;;;;;;24.39;52.13;100152.15;116896;1189;21908;-58
2022/07/07 01:35:18;;;;;;;10.60;8.70;;;;;;;24.40;52.10;100154.85;116995;1186;22734;-57
2022/07/07 01:37:45;;;;;;;9.60;8.70;;;;;;;24.40;52.23;100152.66;117014;1185;23018;-48
2022/07/07 01:40:11;;;;;;;11.40;9.00;;;;;;;24.39;52.91;100158.47;117054;1181;24581;-58
2022/07/07 01:42:38;;;;;;;11.70;9.30;;;;;;;24.35;52.51;100162.52;116986;1188;22917;-58
2022/07/07 01:45:06;;;;;;;12.20;10.10;;;;;;;24.32;52.63;100165.95;116987;1188;21856;-58
2022/07/07 01:47:33;;;;;;;9.90;8.90;;;;;;;24.29;52.50;100167.83;117030;1186;23561;-48
2022/07/07 01:50:00;;;;;;;9.70;8.60;;;;;;;24.29;52.54;100171.94;117032;1186;22049;-48
2022/07/07 01:52:27;;;;;;;11.10;8.80;;;;;;;24.28;52.34;100172.70;116903;1187;21943;-58
2022/07/07 01:54:54;;;;;;;10.60;9.40;;;;;;;24.26;52.65;100177.67;116937;1187;23648;-49
2022/07/07 01:57:21;;;;;;;10.20;9.00;;;;;;;24.22;52.74;100179.43;117064;1186;21857;-48
2022/07/07 01:59:48;;;;;;;11.50;9.40;;;;;;;24.17;52.78;100180.84;116937;1187;23673;-58
2022/07/07 02:02:15;;;;;;;12.10;9.60;;;;;;;24.12;53.26;100181.73;116973;1190;23599;-48
2022/07/07 02:04:43;;;;;;;10.80;8.50;;;;;;;24.06;52.85;100184.67;116945;1187;23476;-48
2022/07/07 02:07:10;;;;;;;10.80;9.00;;;;;;;24.02;52.96;100188.54;116971;1185;23082;-48
2022/07/07 02:09:37;;;;;;;13.90;9.60;;;;;;;23.98;53.34;100187.05;116950;1187;21853;-58
2022/07/07 02:12:05;;;;;;;10.90;9.10;;;;;;;23.94;53.47;100191.83;116956;1187;23266;-58
2022/07/07 02:14:32;;;;;;;9.90;8.90;;;;;;;23.88;53.20;100193.81;117057;1186;21856;-48
2022/07/07 02:16:59;;;;;;;10.30;9.00;;;;;;;23.83;53.19;100196.35;116937;1186;21923;-57
2022/07/07 02:19:26;;;;;;;9.80;8.80;;;;;;;23.79;53.15;100197.33;116942;1188;23453;-48
2022/07/07 02:21:53;;;;;;;12.10;8.90;;;;;;;23.77;53.63;100202.30;117074;1186;23557;-58
2022/07/07 02:24:20;;;;;;;10.10;9.10;;;;;;;23.73;53.29;100200.58;116939;1186;21951;-48
2022/07/07 02:26:47;;;;;;;14.20;9.30;;;;;;;23.72;53.39;100202.48;116924;1184;23443;-48
2022/07/07 02:29:14;;;;;;;11.40;9.30;;;;;;;23.70;53.28;100202.81;116993;1185;22652;-58
2022/07/07 02:31:41;;;;;;;11.30;9.10;;;;;;;23.67;53.58;100206.21;116924;1187;21857;-48
2022/07/07 02:34:08;;;;;;;9.30;8.40;;;;;;;23.64;53.52;100208.02;117065;1186;21874;-48
2022/07/07 02:36:35;;;;;;;10.50;9.10;;;;;;;23.62;53.46;100211.61;116914;1188;21888;-48
2022/07/07 02:39:02;;;;;;;12.40;9.10;;;;;;;23.61;53.74;100210.20;116945;1186;22929;-48
2022/07/07 02:41:29;;;;;;;10.70;9.60;;;;;;;23.60;53.61;100207.40;116925;1186;22635;-48
2022/07/07 02:43:57;;;;;;;14.50;9.20;;;;;;;23.52;54.05;100212.29;116920;1183;21907;-58
2022/07/07 02:46:24;;;;;;;10.00;8.70;;;;;;;23.49;54.03;100216.26;117211;1182;22618;-48
2022/07/07 02:48:51;;;;;;;10.70;8.70;;;;;;;23.47;53.91;100219.23;117103;1185;23544;-48
2022/07/07 02:51:18;;;;;;;10.50;9.50;;;;;;;23.48;54.16;100218.43;117090;1188;22896;-48
2022/07/07 02:53:45;;;;;;;11.60;8.90;;;;;;;23.52;54.19;100214.56;117053;1186;22947;-58
2022/07/07 02:56:12;;;;;;;9.70;8.70;;;;;;;23.55;53.99;100216.67;117050;1185;23736;-58
2022/07/07 02:58:39;;;;;;;16.70;9.10;;;;;;;23.59;54.13;100216.05;116996;1186;21926;-48
2022/07/07 03:01:06;;;;;;;14.50;10.00;;;;;;;23.65;54.09;100213.90;116800;1186;22099;-57
2022/07/07 03:03:33;;;;;;;11.70;9.40;;;;;;;23.68;54.28;100213.48;116916;1186;23472;-57
2022/07/07 03:06:00;;;;;;;9.80;8.80;;;;;;;23.71;54.42;100217.59;117040;1187;22731;-58
2022/07/07 03:08:27;;;;;;;9.90;8.80;;;;;;;23.74;54.45;100218.80;117081;1181;21841;-48
2022/07/07 03:10:59;;;;;;;10.50;8.30;;;;;;;23.76;54.41;100221.15;117046;1185;22036;-48
2022/07/07 03:13:26;;;;;;;12.10;8.70;;;;;;;23.78;54.51;100223.41;117078;1183;22102;-48
2022/07/07 03:15:54;;;;;;;9.20;7.70;;;;;;;23.80;54.44;100225.20;117087;1185;21856;-58
2022/07/07 03:18:22;;;;;;;10.90;8.00;;;;;;;23.86;54.43;100226.77;117004;1182;23402;-59
2022/07/07 03:20:49;;;;;;;8.20;7.40;;;;;;;23.91;54.11;100230.70;117135;1186;24172;-48
2022/07/07 03:23:16;;;;;;;9.60;6.90;;;;;;;23.96;54.15;100235.02;116998;1181;23022;-57
2022/07/07 03:25:43;;;;;;;10.10;7.40;;;;;;;23.98;54.67;100235.39;117097;1187;21857;-57
2022/07/07 03:28:10;;;;;;;8.70;6.70;;;;;;;23.97;54.77;100237.42;116924;1187;22232;-57
2022/07/07 03:30:37;;;;;;;9.70;7.10;;;;;;;23.98;54.49;100240.80;117234;1186;21859;-57
2022/07/07 03:33:04;;;;;;;9.70;7.20;;;;;;;24.00;54.66;100241.05;117272;1185;22948;-48
2022/07/07 03:35:31;;;;;;;9.20;7.20;;;;;;;24.03;54.34;100239.76;117041;1185;22823;-48
2022/07/07 03:37:58;;;;;;;8.10;5.90;;;;;;;24.10;54.14;100238.92;117025;1188;22918;-57
2022/07/07 03:40:25;;;;;;;10.40;6.20;;;;;;;24.15;54.30;100238.32;116890;1187;22905;-57
2022/07/07 03:42:52;;;;;;;7.90;6.30;;;;;;;24.17;54.21;100239.45;117027;1186;22009;-48
2022/07/07 03:45:19;;;;;;;9.10;6.50;;;;;;;24.14;54.36;100244.53;117060;1188;21858;-57
2022/07/07 03:47:46;;;;;;;7.90;6.50;;;;;;;24.14;54.08;100245.61;117010;1182;22931;-48
2022/07/07 03:50:13;;;;;;;7.10;6.40;;;;;;;24.17;54.14;100245.58;117021;1187;22926;-48
2022/07/07 03:52:40;;;;;;;8.00;6.10;;;;;;;24.19;54.32;100244.16;117237;1183;21874;-49
2022/07/07 03:55:08;;;;;;;7.60;5.90;;;;;;;24.26;54.25;100243.11;117050;1186;23554;-57
2022/07/07 03:57:36;;;;;;;6.10;5.50;;;;;;;24.33;54.25;100243.30;116968;1186;22938;-48
2022/07/07 04:00:03;;;;;;;6.70;5.40;;;;;;;24.37;54.16;100241.06;116965;1187;23547;-48
2022/07/07 04:02:30;;;;;;;8.60;6.40;;;;;;;24.43;53.97;100243.17;116960;1186;21970;-48
2022/07/07 04:04:57;;;;;;;6.60;5.90;;;;;;;24.45;54.07;100245.36;117056;1187;21856;-48
2022/07/07 04:07:25;;;;;;;8.30;5.90;;;;;;;24.50;54.33;100243.89;117035;1186;21843;-48
2022/07/07 04:09:52;;;;;;;7.60;6.00;;;;;;;24.54;54.17;100243.98;117046;1187;21855;-57
2022/07/07 04:12:19;;;;;;;9.30;6.00;;;;;;;24.66;54.30;100240.61;117020;1187;21868;-48
2022/07/07 04:14:46;;;;;;;7.40;6.30;;;;;;;24.76;54.22;100244.36;117160;1186;22930;-47
2022/07/07 04:17:13;;;;;;;7.40;6.50;;;;;;;24.82;54.06;100240.69;116949;1187;23007;-57
2022/07/07 04:19:40;;;;;;;6.70;6.00;;;;;;;24.86;53.97;100241.31;116987;1182;22932;-47
2022/07/07 04:22:07;;;;;;;7.40;6.20;;;;;;;24.89;53.95;100237.14;117136;1183;22957;-57
2022/07/07 04:24:34;;;;;;;10.20;6.30;;;;;;;24.95;53.76;100234.14;117277;1187;21856;-56
2022/07/07 04:27:01;;;;;;;8.60;5.90;;;;;;;25.03;53.65;100232.70;117117;1183;22322;-48
2022/07/07 04:29:28;;;;;;;8.20;6.10;;;;;;;25.11;53.60;100233.20;117355;1183;23647;-57
2022/07/07 04:31:54;;;;;;;6.80;5.80;;;;;;;25.20;53.57;100231.39;117238;1182;23440;-56
2022/07/07 04:34:25;;;;;;;8.20;6.00;;;;;;;25.31;53.57;100230.40;117104;1182;23635;-47
2022/07/07 04:36:52;;;;;;;;;;;;;;;25.43;53.48;100228.23;117070;1187;21861;-56
2022/07/07 04:39:20;;;;;;;7.30;5.40;;;;;;;25.50;53.30;100226.45;118717;1184;21877;-47
2022/07/07 04:41:47;;;;;;;9.00;6.20;;;;;;;25.74;54.57;100223.01;117293;1185;22928;-47
2022/07/07 04:44:14;;;;;;;7.10;5.30;;;;;;;26.01;53.83;100222.34;117264;1183;21855;-47
2022/07/07 04:46:41;;;;;;;8.40;6.30;;;;;;;26.04;53.27;100225.16;117266;1183;22169;-48
2022/07/07 04:49:09;;;;;;;8.50;5.50;;;;;;;26.07;53.15;100225.79;117062;1187;21867;-48
2022/07/07 04:51:39;;;;;;;10.30;5.70;;;;;;;26.10;53.07;100223.34;116989;1188;22165;-56
2022/07/07 04:54:07;;;;;;;7.90;5.80;;;;;;;26.16;52.87;100224.18;117092;1182;21854;-46
2022/07/07 04:56:34;;;;;;;8.60;5.90;;;;;;;26.21;52.84;100222.88;117248;1185;21989;-56
2022/07/07 04:59:02;;;;;;;8.40;5.80;;;;;;;26.26;52.89;100222.16;116973;1186;22648;-56
2022/07/07 05:01:29;;;;;;;9.30;5.50;;;;;;;26.32;53.01;100224.75;117205;1186;23472;-48
2022/07/07 05:03:56;;;;;;;10.30;5.90;;;;;;;26.84;52.37;100224.10;117159;1186;21898;-51
2022/07/07 05:06:23;;;;;;;7.20;5.70;;;;;;;26.84;51.56;100223.89;117050;1186;22851;-48
2022/07/07 05:08:50;;;;;;;8.10;5.10;;;;;;;26.79;51.51;100224.09;117245;1183;21914;-57
2022/07/07 05:11:17;;;;;;;8.00;5.10;;;;;;;26.84;51.41;100225.89;117228;1180;21910;-48
2022/07/07 05:13:45;;;;;;;5.40;4.60;;;;;;;26.93;51.30;100228.96;117026;1188;23586;-58
2022/07/07 05:16:12;;;;;;;6.00;4.50;;;;;;;27.04;51.11;100228.90;117084;1183;21866;-48
2022/07/07 05:18:39;;;;;;;6.20;4.30;;;;;;;27.11;50.92;100226.91;117313;1182;23826;-58
2022/07/07 05:21:06;;;;;;;10.50;4.90;;;;;;;27.12;50.51;100232.37;117295;1185;21851;-47
2022/07/07 05:23:33;;;;;;;19.50;5.40;;;;;;;27.27;50.48;100229.52;117217;1182;24230;-47
2022/07/07 05:26:00;;;;;;;10.30;4.90;;;;;;;27.50;50.34;100228.46;117200;1185;21942;-58
2022/07/07 05:28:28;;;;;;;10.40;5.10;;;;;;;27.70;50.07;100226.40;117216;1185;21858;-58
2022/07/07 05:30:56;;;;;;;5.60;4.50;;;;;;;27.80;49.92;100225.02;117327;1186;23491;-58
2022/07/07 05:33:23;;;;;;;6.40;4.60;;;;;;;27.79;49.84;100229.06;117095;1186;22333;-58
2022/07/07 05:35:51;;;;;;;7.50;4.60;;;;;;;27.75;49.72;100234.06;117082;1186;21892;-57
2022/07/07 05:38:21;;;;;;;5.00;4.20;;;;;;;27.70;49.63;100232.95;117178;1185;23564;-48
2022/07/07 05:40:48;;;;;;;5.80;4.30;;;;;;;27.65;49.85;100232.41;117130;1185;23649;-58
2022/07/07 05:43:15;;;;;;;6.00;5.10;;;;;;;27.65;49.74;100230.79;117202;1185;21847;-48
2022/07/07 05:45:42;;;;;;;7.20;4.70;;;;;;;27.66;49.62;100231.24;117223;1189;21880;-57
2022/07/07 05:48:09;;;;;;;6.90;5.30;;;;;;;27.70;49.55;100228.24;117222;1186;21869;-48
2022/07/07 05:50:36;;;;;;;16.90;5.50;;;;;;;27.79;49.66;100224.73;117175;1186;24284;-57
2022/07/07 05:53:03;;;;;;;10.70;4.90;;;;;;;27.92;49.50;100225.81;117251;1186;22927;-48
2022/07/07 05:55:30;;;;;;;4.90;4.30;;;;;;;27.99;49.29;100222.45;117105;1188;21855;-58
2022/07/07 05:57:57;;;;;;;7.40;4.90;;;;;;;28.03;48.98;100222.85;117060;1186;22867;-49
2022/07/07 06:00:25;;;;;;;4.40;3.70;;;;;;;28.08;49.09;100219.87;117049;1183;24040;-57
2022/07/07 06:02:52;;;;;;;6.40;4.30;;;;;;;28.20;49.13;100222.23;117111;1186;22931;-57
2022/07/07 06:05:20;;;;;;;7.50;4.40;;;;;;;28.34;48.86;100218.69;117246;1182;22070;-48
2022/07/07 06:07:47;;;;;;;6.90;4.30;;;;;;;28.50;48.55;100225.53;117292;1186;21973;-48
2022/07/07 06:10:14;;;;;;;6.30;4.00;;;;;;;28.79;47.98;100224.73;117136;1185;21852;-56
2022/07/07 06:12:42;;;;;;;6.00;4.10;;;;;;;29.12;47.40;100222.84;117064;1187;22081;-48
2022/07/07 06:15:09;;;;;;;4.80;4.10;;;;;;;29.20;47.20;100221.69;117107;1183;23715;-57
2022/07/07 06:17:36;;;;;;;4.70;4.20;;;;;;;29.27;47.06;100222.67;117286;1185;21855;-58
2022/07/07 06:20:24;;;;;;;6.40;4.00;;;;;;;29.29;47.14;100218.15;117090;1180;21904;-57
2022/07/07 06:22:51;;;;;;;5.00;3.70;;;;;;;29.22;47.45;100219.82;117053;1186;22972;-58
2022/07/07 06:25:18;;;;;;;4.20;3.50;;;;;;;29.29;47.25;100215.23;117186;1182;24188;-48
2022/07/07 06:27:45;;;;;;;6.10;4.00;;;;;;;29.41;47.10;100206.55;117304;1182;22930;-48
2022/07/07 06:30:12;;;;;;;6.50;4.40;;;;;;;29.56;46.82;100205.89;117294;1188;23579;-48
2022/07/07 06:32:39;;;;;;;5.40;3.60;;;;;;;29.66;46.33;100206.17;117262;1182;21881;-57
2022/07/07 06:35:06;;;;;;;6.70;4.00;;;;;;;29.75;46.28;100213.54;117332;1183;22660;-57
2022/07/07 06:37:33;;;;;;;5.50;3.60;;;;;;;29.81;46.14;100210.39;117437;1185;21852;-49
2022/07/07 06:40:01;;;;;;;3.80;3.30;;;;;;;29.91;46.10;100206.32;117296;1180;22912;-48
2022/07/07 06:42:28;;;;;;;5.00;3.20;;;;;;;30.10;46.27;100202.41;117329;1182;23622;-50
2022/07/07 06:44:54;;;;;;;6.20;3.20;;;;;;;30.26;45.77;100200.49;117299;1186;21866;-48
2022/07/07 06:47:21;;;;;;;4.20;3.40;;;;;;;30.45;45.93;100206.34;117285;1183;24189;-49
2022/07/07 06:49:48;;;;;;;3.80;3.40;;;;;;;30.66;45.38;100199.02;117209;1183;22905;-48
2022/07/07 06:52:15;;;;;;;3.20;2.90;;;;;;;30.80;44.93;100202.08;117213;1186;21861;-58
2022/07/07 06:54:42;;;;;;;4.80;3.00;;;;;;;30.93;44.98;100196.93;117303;1183;22650;-58
2022/07/07 06:57:09;;;;;;;7.10;3.40;;;;;;;31.07;44.61;100197.86;117204;1182;21903;-49
2022/07/07 06:59:37;;;;;;;7.60;3.00;;;;;;;31.27;44.40;100199.13;117342;1186;23555;-48
2022/07/07 07:02:04;;;;;;;5.10;3.10;;;;;;;31.36;43.70;100198.70;117331;1185;21865;-58
2022/07/07 07:04:31;;;;;;;3.30;2.70;;;;;;;31.41;43.60;100195.27;117393;1180;22951;-49
2022/07/07 07:06:59;;;;;;;11.50;3.60;;;;;;;31.54;42.77;100196.70;117263;1186;22914;-48
2022/07/07 07:09:26;;;;;;;23.90;4.40;;;;;;;31.71;42.62;100197.66;117185;1185;22947;-48
2022/07/07 07:11:54;;;;;;;8.20;3.00;;;;;;;32.00;42.66;100205.16;117302;1182;24180;-48
2022/07/07 07:14:25;;;;;;;6.50;3.30;;;;;;;32.16;42.54;100207.11;117370;1186;22878;-48
2022/07/07 07:16:52;;;;;;;4.00;3.00;;;;;;;32.25;42.56;100206.15;117421;1186;22896;-58
2022/07/07 07:19:19;;;;;;;6.00;3.00;;;;;;;32.39;42.13;100212.11;117359;1186;21851;-56
2022/07/07 07:21:46;;;;;;;4.40;3.10;;;;;;;32.50;42.29;100214.73;117441;1185;21975;-49
2022/07/07 07:24:13;;;;;;;4.80;2.80;;;;;;;32.68;42.06;100217.74;117264;1181;22644;-48
2022/07/07 07:26:40;;;;;;;4.20;2.60;;;;;;;32.76;41.54;100215.41;117155;1185;22901;-49
2022/07/07 07:29:13;;;;;;;6.40;2.90;;;;;;;32.73;41.24;100210.83;116942;1186;21852;-59
2022/07/07 07:31:40;;;;;;;8.40;2.70;;;;;;;32.77;41.43;100209.48;117108;1186;21857;-58
2022/07/07 07:34:08;;;;;;;7.70;3.00;;;;;;;32.93;41.19;100205.03;117203;1182;23476;-58
2022/07/07 07:36:35;;;;;;;10.20;3.20;;;;;;;33.15;41.47;100203.54;117061;1186;21918;-48
2022/07/07 07:39:02;;;;;;;5.20;2.90;;;;;;;33.42;41.18;100202.98;116987;1186;21858;-49
2022/07/07 07:41:29;;;;;;;6.40;2.70;;;;;;;33.62;41.01;100204.75;117062;1187;22042;-49
2022/07/07 07:43:56;;;;;;;12.40;3.10;;;;;;;33.85;40.10;100196.52;117198;1185;21846;-49
2022/07/07 07:46:24;;;;;;;35.40;21.30;;;;;;;34.05;39.70;100197.52;117194;1183;23576;-49
2022/07/07 07:48:51;;;;;;;13.70;6.00;;;;;;;34.23;40.21;100200.94;117021;1189;24165;-50
2022/07/07 07:51:18;;;;;;;8.00;3.80;;;;;;;34.33;40.07;100206.10;117132;1182;23675;-49
2022/07/07 07:53:45;;;;;;;4.80;3.00;;;;;;;34.41;39.44;100206.30;117097;1186;21865;-58
2022/07/07 07:56:12;;;;;;;3.70;2.50;;;;;;;34.48;39.35;100209.91;117115;1183;22983;-48
2022/07/07 07:58:39;;;;;;;4.50;2.70;;;;;;;34.58;39.43;100211.65;117091;1185;22821;-49
2022/07/07 08:01:07;;;;;;;4.20;2.30;;;;;;;34.73;38.61;100209.34;117076;1188;23605;-48
2022/07/07 08:03:34;;;;;;;6.80;2.80;;;;;;;34.86;38.17;100206.88;117061;1185;24159;-59
2022/07/07 08:06:01;;;;;;;3.70;2.50;;;;;;;34.96;38.16;100202.76;117202;1186;23470;-48
2022/07/07 08:08:30;;;;;;;3.30;2.50;;;;;;;35.01;37.16;100201.48;117020;1187;21888;-58
2022/07/07 08:10:57;;;;;;;7.00;3.10;;;;;;;34.96;37.08;100197.52;117101;1186;21857;-58
2022/07/07 08:13:24;;;;;;;4.90;2.80;;;;;;;34.96;37.11;100197.52;117212;1183;23580;-58
2022/07/07 08:15:52;;;;;;;3.70;2.50;;;;;;;34.97;37.49;100199.37;116930;1186;21847;-49
2022/07/07 08:18:19;;;;;;;7.40;2.40;;;;;;;34.98;36.76;100198.27;116937;1186;23577;-49
2022/07/07 08:20:46;;;;;;;9.40;3.10;;;;;;;34.89;36.02;100196.33;117168;1186;24145;-49
2022/07/07 08:23:13;;;;;;;4.80;2.60;;;;;;;34.70;36.39;100201.08;117289;1186;21845;-49
2022/07/07 08:25:40;;;;;;;6.00;2.50;;;;;;;34.60;37.16;100199.35;117062;1186;22818;-49
2022/07/07 08:28:07;;;;;;;5.20;2.60;;;;;;;34.66;36.94;100201.97;117202;1183;21849;-50
2022/07/07 08:30:35;;;;;;;3.70;2.60;;;;;;;34.71;36.18;100199.37;117162;1185;22841;-58
2022/07/07 08:33:02;;;;;;;4.60;2.10;;;;;;;34.70;36.13;100199.06;117208;1185;21884;-58
2022/07/07 08:35:29;;;;;;;3.20;2.30;;;;;;;34.81;36.31;100199.69;117345;1185;23478;-50
2022/07/07 08:37:56;;;;;;;3.70;2.20;;;;;;;34.99;36.14;100202.33;117043;1183;21864;-59
2022/07/07 08:40:23;;;;;;;2.90;2.30;;;;;;;35.04;35.82;100203.90;117083;1185;23557;-50
2022/07/07 08:42:57;;;;;;;3.70;2.10;;;;;;;34.97;35.59;100204.90;116948;1185;21855;-60
2022/07/07 08:45:24;;;;;;;7.10;2.50;;;;;;;34.85;36.07;100207.38;117145;1187;21965;-49
2022/07/07 08:47:52;;;;;;;5.90;2.40;;;;;;;34.67;35.36;100207.84;117221;1182;21843;-54
2022/07/07 08:50:19;;;;;;;4.20;2.60;;;;;;;34.27;35.45;100214.27;117223;1186;23554;-59
2022/07/07 08:52:50;;;;;;;5.80;2.20;;;;;;;34.04;36.10;100216.92;117210;1185;22930;-54
2022/07/07 08:55:20;;;;;;;6.70;2.80;;;;;;;33.87;35.76;100216.42;117254;1185;21856;-50
2022/07/07 08:57:49;;;;;;;5.70;2.50;;;;;;;33.73;36.27;100221.14;117052;1186;21902;-50
2022/07/07 09:00:17;;;;;;;2.60;2.10;;;;;;;33.71;36.45;100219.71;117179;1182;24142;-49
2022/07/07 09:02:45;;;;;;;4.00;2.00;;;;;;;33.70;36.13;100220.91;117167;1185;21848;-59
2022/07/07 09:05:12;;;;;;;5.20;2.50;;;;;;;33.71;36.07;100222.81;117224;1182;23471;-50
2022/07/07 09:07:52;;;;;;;3.60;2.40;;;;;;;33.69;36.16;100223.56;117210;1186;21967;-60
2022/07/07 09:10:33;;;;;;;4.40;1.90;;;;;;;33.61;36.22;100222.05;117269;1183;21862;-60
2022/07/07 09:13:00;;;;;;;4.50;2.30;;;;;;;33.53;36.10;100224.15;117236;1183;21856;-50
2022/07/07 09:15:27;;;;;;;4.50;2.20;;;;;;;33.44;36.17;100226.08;117291;1185;24170;-51
2022/07/07 09:17:54;;;;;;;4.40;2.10;;;;;;;33.40;36.30;100225.55;117091;1182;23451;-50
2022/07/07 09:20:22;;;;;;;6.30;2.60;;;;;;;33.39;36.50;100224.77;117342;1183;22871;-59
2022/07/07 09:22:51;;;;;;;4.50;2.60;;;;;;;33.39;36.25;100225.52;117131;1185;23473;-50
2022/07/07 09:25:26;;;;;;;5.10;2.90;;;;;;;33.21;36.36;100223.64;117262;1185;22937;-50
2022/07/07 09:28:00;;;;;;;3.80;2.30;;;;;;;33.11;36.36;100221.64;117098;1183;21856;-50
2022/07/07 09:30:43;;;;;;;6.00;2.40;;;;;;;33.04;36.37;100218.73;117068;1188;23615;-50
2022/07/07 09:33:14;;;;;;;3.50;2.50;;;;;;;32.99;36.44;100218.55;117161;1182;22859;-59
2022/07/07 09:38:30;;;;;;;6.30;2.50;;;;;;;33.01;36.51;100224.69;117019;1185;22899;-50
2022/07/07 09:41:00;;;;;;;6.20;3.00;;;;;;;32.98;36.54;100222.48;117150;1186;21952;-50
2022/07/07 09:43:32;;;;;;;11.50;3.20;;;;;;;32.83;36.51;100223.92;117389;1182;21892;-59
2022/07/07 09:46:22;;;;;;;3.90;2.90;;;;;;;32.73;36.64;100225.52;117121;1186;21853;-59
2022/07/07 09:48:54;;;;;;;3.00;2.60;;;;;;;32.67;36.70;100226.06;117209;1185;21854;-50
2022/07/07 09:51:26;;;;;;;8.00;3.20;;;;;;;32.63;36.83;100228.03;117170;1185;21855;-50
2022/07/07 09:54:05;;;;;;;5.30;3.20;;;;;;;32.63;37.04;100226.09;117261;1182;23967;-50
2022/07/07 09:56:36;;;;;;;8.50;3.10;;;;;;;32.68;37.17;100229.19;117092;1182;24171;-49
2022/07/07 09:59:08;;;;;;;4.60;3.60;;;;;;;32.70;37.01;100230.73;117212;1185;21963;-60
2022/07/07 10:01:40;;;;;;;5.20;3.00;;;;;;;32.69;37.09;100234.54;117008;1187;22267;-59
2022/07/07 10:04:10;;;;;;;4.10;3.20;;;;;;;32.74;37.08;100234.72;117000;1188;21864;-50
2022/07/07 10:06:41;;;;;;;4.90;3.10;;;;;;;32.75;37.13;100236.19;117140;1183;21863;-60
2022/07/07 10:09:10;;;;;;;8.80;3.30;;;;;;;32.79;37.17;100237.83;117180;1182;22972;-60
2022/07/07 10:11:44;;;;;;;7.70;4.40;;;;;;;32.82;37.14;100238.04;117129;1187;22641;-51
2022/07/07 10:14:12;;;;;;;7.80;4.80;;;;;;;32.85;37.07;100236.64;117196;1183;22725;-50
2022/07/07 10:16:40;;;;;;;11.20;6.70;;;;;;;32.87;37.02;100237.91;117239;1180;22937;-59
2022/07/07 10:19:09;;;;;;;10.90;8.40;;;;;;;32.88;36.99;100239.73;117342;1182;21855;-59
2022/07/07 10:21:37;;;;;;;7.90;4.90;;;;;;;32.88;36.88;100237.17;117339;1183;21826;-59
2022/07/07 10:24:05;;;;;;;9.20;4.30;;;;;;;32.84;36.83;100237.28;117153;1186;21845;-59
2022/07/07 10:26:39;;;;;;;8.10;3.90;;;;;;;32.77;36.80;100232.73;117323;1186;22745;-59
2022/07/07 10:29:08;;;;;;;8.10;3.60;;;;;;;32.73;36.66;100234.42;117280;1185;21954;-49
2022/07/07 10:31:37;;;;;;;6.10;3.70;;;;;;;32.69;36.76;100230.35;117307;1185;21854;-59
2022/07/07 10:34:11;;;;;;;5.70;3.20;;;;;;;32.69;36.77;100234.13;117179;1185;21877;-59
2022/07/07 10:36:51;;;;;;;4.90;3.00;;;;;;;32.73;36.74;100230.45;117211;1186;21856;-50
2022/07/07 10:39:21;;;;;;;8.20;3.70;;;;;;;32.78;36.80;100224.65;117272;1182;22650;-58
2022/07/07 10:42:13;;;;;;;7.10;3.60;;;;;;;32.90;36.73;100219.92;117170;1182;22884;-59
2022/07/07 10:44:40;;;;;;;12.00;5.20;;;;;;;33.22;40.64;100219.27;117155;1185;22939;-59
2022/07/07 10:47:10;;;;;;;7.20;5.10;;;;;;;33.28;41.82;100214.67;117111;1183;21898;-60
2022/07/07 10:49:45;;;;;;;6.10;4.00;;;;;;;33.40;37.42;100216.37;117105;1182;22652;-59
2022/07/07 10:52:18;;;;;;;7.60;4.40;;;;;;;33.46;36.84;100214.17;117283;1182;23516;-60
2022/07/07 10:54:52;;;;;;;8.30;3.40;;;;;;;33.48;36.51;100216.08;117114;1183;22962;-49
2022/07/07 10:57:20;;;;;;;4.10;3.40;;;;;;;33.48;36.34;100212.96;117189;1185;22946;-59
2022/07/07 11:00:01;;;;;;;10.60;3.40;;;;;;;33.46;35.86;100209.98;117230;1182;22931;-58
2022/07/07 11:02:32;;;;;;;5.20;3.10;;;;;;;33.41;36.08;100212.02;117200;1182;23476;-49
2022/07/07 11:05:00;;;;;;;5.70;3.20;;;;;;;33.36;36.17;100212.83;117059;1188;21866;-58
2022/07/07 11:07:28;;;;;;;5.90;3.10;;;;;;;33.36;35.99;100206.30;117150;1186;23021;-49
2022/07/07 11:09:56;;;;;;;5.80;2.70;;;;;;;33.33;35.96;100205.86;117307;1186;22998;-59
2022/07/07 11:12:43;;;;;;;6.80;3.20;;;;;;;33.24;35.73;100207.45;117255;1185;21855;-49
2022/07/07 11:15:30;;;;;;;3.70;2.90;;;;;;;33.17;35.77;100206.59;117126;1186;21863;-49
2022/07/07 11:17:59;;;;;;;4.40;2.70;;;;;;;33.13;35.84;100206.34;117199;1182;22927;-60
2022/07/07 11:20:29;;;;;;;9.20;2.80;;;;;;;33.10;35.67;100205.04;117189;1183;24191;-49
2022/07/07 11:23:07;;;;;;;;;;;;;;;33.06;35.63;100205.23;117264;1185;21841;-59